createdAt,value
2023-04-17T00:00:57.146Z,5.71
2023-04-17T00:01:57.138Z,5.71
2023-04-17T00:02:57.453Z,5.71
2023-04-17T00:03:57.178Z,5.70
2023-04-17T00:04:57.193Z,5.69
2023-04-17T00:05:57.129Z,5.69
2023-04-17T00:06:57.067Z,5.69
2023-04-17T00:07:57.030Z,5.68
2023-04-17T00:08:57.046Z,5.67
2023-04-17T00:09:57.068Z,5.67
2023-04-17T00:11:04.561Z,5.67
2023-04-17T00:11:57.000Z,5.67
2023-04-17T00:12:56.994Z,5.67
2023-04-17T00:13:56.988Z,5.67
2023-04-17T00:14:56.964Z,5.67
2023-04-17T00:15:56.999Z,5.66
2023-04-17T00:16:56.960Z,5.66
2023-04-17T00:17:57.067Z,5.66
2023-04-17T00:18:57.104Z,5.66
2023-04-17T00:19:56.969Z,5.66
2023-04-17T00:20:57.160Z,5.66
2023-04-17T00:21:56.935Z,5.66
2023-04-17T00:22:56.909Z,5.66
2023-04-17T00:23:56.926Z,5.66
2023-04-17T00:24:56.847Z,5.66
2023-04-17T00:25:56.851Z,5.65
2023-04-17T00:26:56.874Z,5.65
2023-04-17T00:27:56.818Z,5.65
2023-04-17T00:28:56.813Z,5.65
2023-04-17T00:29:56.800Z,5.65
2023-04-17T00:30:56.842Z,5.66
2023-04-17T00:31:56.877Z,5.66
2023-04-17T00:32:56.818Z,5.66
2023-04-17T00:33:56.901Z,5.67
2023-04-17T00:34:56.758Z,5.67
2023-04-17T00:35:56.840Z,5.67
2023-04-17T00:36:56.890Z,5.67
2023-04-17T00:37:56.792Z,5.67
2023-04-17T00:38:56.823Z,5.67
2023-04-17T00:39:56.769Z,5.67
2023-04-17T00:40:56.755Z,5.67
2023-04-17T00:41:56.772Z,5.68
2023-04-17T00:42:56.681Z,5.68
2023-04-17T00:43:56.710Z,5.68
2023-04-17T00:44:56.729Z,5.68
2023-04-17T00:45:56.800Z,5.68
2023-04-17T00:46:56.713Z,5.68
2023-04-17T00:47:56.696Z,5.68
2023-04-17T00:48:56.621Z,5.69
2023-04-17T00:49:56.620Z,5.69
2023-04-17T00:50:56.628Z,5.70
2023-04-17T00:51:56.658Z,5.69
2023-04-17T00:52:56.611Z,5.69
2023-04-17T00:53:56.686Z,5.69
2023-04-17T00:54:56.581Z,5.69
2023-04-17T00:55:56.604Z,5.69
2023-04-17T00:56:56.708Z,5.68
2023-04-17T00:57:56.588Z,5.68
2023-04-17T00:58:56.556Z,5.67
2023-04-17T00:59:56.575Z,5.68
2023-04-17T01:00:56.595Z,5.67
2023-04-17T01:01:56.622Z,5.67
2023-04-17T01:02:56.687Z,5.67
2023-04-17T01:04:03.879Z,5.67
2023-04-17T01:04:56.729Z,5.67
2023-04-17T01:05:56.649Z,5.67
2023-04-17T01:06:56.521Z,5.68
2023-04-17T01:07:56.420Z,5.68
2023-04-17T01:08:56.479Z,5.68
2023-04-17T01:09:56.554Z,5.68
2023-04-17T01:10:56.486Z,5.68
2023-04-17T01:11:56.405Z,5.68
2023-04-17T01:12:56.515Z,5.69
2023-04-17T01:13:56.393Z,5.68
2023-04-17T01:14:56.398Z,5.68
2023-04-17T01:15:56.412Z,5.67
2023-04-17T01:16:56.450Z,5.67
2023-04-17T01:17:56.356Z,5.67
2023-04-17T01:18:56.409Z,5.67
2023-04-17T01:19:56.398Z,5.67
2023-04-17T01:20:56.362Z,5.67
2023-04-17T01:21:56.356Z,5.66
2023-04-17T01:22:56.323Z,5.66
2023-04-17T01:23:56.513Z,5.66
2023-04-17T01:24:56.321Z,5.66
2023-04-17T01:25:56.269Z,5.66
2023-04-17T01:26:56.237Z,5.66
2023-04-17T01:27:56.256Z,5.66
2023-04-17T01:28:56.367Z,5.66
2023-04-17T01:29:56.199Z,5.67
2023-04-17T01:30:56.215Z,5.67
2023-04-17T01:31:56.198Z,5.68
2023-04-17T01:32:56.266Z,5.69
2023-04-17T01:33:56.176Z,5.70
2023-04-17T01:34:56.196Z,5.70
2023-04-17T01:35:56.241Z,5.70
2023-04-17T01:36:56.154Z,5.69
2023-04-17T01:37:56.144Z,5.69
2023-04-17T01:38:56.122Z,5.69
2023-04-17T01:39:56.185Z,5.69
2023-04-17T01:40:56.158Z,5.69
2023-04-17T01:41:56.136Z,5.70
2023-04-17T01:42:56.162Z,5.70
2023-04-17T01:43:56.153Z,5.70
2023-04-17T01:44:56.085Z,5.70
2023-04-17T01:45:56.141Z,5.69
2023-04-17T01:46:56.060Z,5.69
2023-04-17T01:47:56.234Z,5.69
2023-04-17T01:48:56.079Z,5.69
2023-04-17T01:49:56.039Z,5.68
2023-04-17T01:50:56.018Z,5.67
2023-04-17T01:51:56.050Z,5.66
2023-04-17T01:52:56.020Z,5.65
2023-04-17T01:53:55.988Z,5.64
2023-04-17T01:54:56.023Z,5.64
2023-04-17T01:55:56.007Z,5.63
2023-04-17T01:56:56.035Z,5.63
2023-04-17T01:57:55.921Z,5.63
2023-04-17T01:58:55.916Z,5.63
2023-04-17T01:59:55.985Z,5.62
2023-04-17T02:00:55.930Z,5.62
2023-04-17T02:01:55.974Z,5.61
2023-04-17T02:02:56.002Z,5.60
2023-04-17T02:03:56.048Z,5.60
2023-04-17T02:04:55.890Z,5.59
2023-04-17T02:05:55.847Z,5.59
2023-04-17T02:06:55.870Z,5.58
2023-04-17T02:07:55.829Z,5.57
2023-04-17T02:08:55.855Z,5.56
2023-04-17T02:09:55.831Z,5.55
2023-04-17T02:10:55.861Z,5.54
2023-04-17T02:11:55.922Z,5.54
2023-04-17T02:12:55.860Z,5.53
2023-04-17T02:13:55.797Z,5.53
2023-04-17T02:14:55.784Z,5.53
2023-04-17T02:15:55.768Z,5.52
2023-04-17T02:16:55.762Z,5.52
2023-04-17T02:17:55.789Z,5.51
2023-04-17T02:18:55.726Z,5.51
2023-04-17T02:19:55.823Z,5.51
2023-04-17T02:20:55.715Z,5.51
2023-04-17T02:21:55.706Z,5.51
2023-04-17T02:22:55.703Z,5.51
2023-04-17T02:23:55.676Z,5.51
2023-04-17T02:24:55.717Z,5.51
2023-04-17T02:25:55.730Z,5.51
2023-04-17T02:26:55.698Z,5.51
2023-04-17T02:27:55.641Z,5.51
2023-04-17T02:28:55.650Z,5.51
2023-04-17T02:29:55.610Z,5.51
2023-04-17T02:30:55.647Z,5.50
2023-04-17T02:31:55.581Z,5.50
2023-04-17T02:32:55.624Z,5.50
2023-04-17T02:33:55.585Z,5.51
2023-04-17T02:34:55.551Z,5.51
2023-04-17T02:35:55.558Z,5.52
2023-04-17T02:36:55.604Z,5.53
2023-04-17T02:37:55.572Z,5.53
2023-04-17T02:38:55.549Z,5.53
2023-04-17T02:39:55.541Z,5.53
2023-04-17T02:40:55.529Z,5.52
2023-04-17T02:41:55.587Z,5.52
2023-04-17T02:42:55.474Z,5.51
2023-04-17T02:43:55.544Z,5.51
2023-04-17T02:44:55.463Z,5.50
2023-04-17T02:45:55.470Z,5.50
2023-04-17T02:46:55.501Z,5.49
2023-04-17T02:47:55.574Z,5.49
2023-04-17T02:48:55.471Z,5.49
2023-04-17T02:49:55.428Z,5.49
2023-04-17T02:50:55.457Z,5.48
2023-04-17T02:51:55.455Z,5.48
2023-04-17T02:52:55.392Z,5.48
2023-04-17T02:53:55.372Z,5.48
2023-04-17T02:54:55.393Z,5.48
2023-04-17T02:55:55.407Z,5.47
2023-04-17T02:56:55.397Z,5.47
2023-04-17T02:57:55.354Z,5.46
2023-04-17T02:58:55.443Z,5.46
2023-04-17T02:59:55.491Z,5.46
2023-04-17T03:00:55.514Z,5.46
2023-04-17T03:01:55.529Z,5.46
2023-04-17T03:02:55.595Z,5.46
2023-04-17T03:03:55.713Z,5.47
2023-04-17T03:04:55.321Z,5.47
2023-04-17T03:05:55.388Z,5.47
2023-04-17T03:06:55.523Z,5.47
2023-04-17T03:07:55.460Z,5.47
2023-04-17T03:08:55.445Z,5.46
2023-04-17T03:09:55.450Z,5.46
2023-04-17T03:10:55.347Z,5.45
2023-04-17T03:11:55.264Z,5.45
2023-04-17T03:12:55.361Z,5.45
2023-04-17T03:13:55.355Z,5.45
2023-04-17T03:14:55.266Z,5.45
2023-04-17T03:15:55.403Z,5.44
2023-04-17T03:16:55.368Z,5.44
2023-04-17T03:17:55.367Z,5.44
2023-04-17T03:18:55.338Z,5.43
2023-04-17T03:19:55.329Z,5.43
2023-04-17T03:20:55.277Z,5.43
2023-04-17T03:21:55.463Z,5.43
2023-04-17T03:22:55.227Z,5.43
2023-04-17T03:23:55.330Z,5.43
2023-04-17T03:24:55.339Z,5.42
2023-04-17T03:25:55.163Z,5.42
2023-04-17T03:26:55.251Z,5.42
2023-04-17T03:27:55.350Z,5.43
2023-04-17T03:28:55.127Z,5.43
2023-04-17T03:29:55.165Z,5.43
2023-04-17T03:30:55.225Z,5.43
2023-04-17T03:31:55.195Z,5.43
2023-04-17T03:32:55.193Z,5.43
2023-04-17T03:33:55.075Z,5.43
2023-04-17T03:34:55.152Z,5.43
2023-04-17T03:35:55.022Z,5.44
2023-04-17T03:36:55.051Z,5.44
2023-04-17T03:37:55.021Z,5.45
2023-04-17T03:38:55.023Z,5.46
2023-04-17T03:39:55.007Z,5.47
2023-04-17T03:40:55.079Z,5.47
2023-04-17T03:41:55.214Z,5.47
2023-04-17T03:42:55.009Z,5.47
2023-04-17T03:43:55.041Z,5.48
2023-04-17T03:44:54.941Z,5.48
2023-04-17T03:45:54.999Z,5.48
2023-04-17T03:46:55.012Z,5.49
2023-04-17T03:47:55.151Z,5.49
2023-04-17T03:48:55.020Z,5.49
2023-04-17T03:49:54.989Z,5.49
2023-04-17T03:50:54.895Z,5.50
2023-04-17T03:51:55.028Z,5.50
2023-04-17T03:52:54.952Z,5.51
2023-04-17T03:53:55.553Z,5.51
2023-04-17T03:54:55.210Z,5.52
2023-04-17T03:56:02.342Z,5.52
2023-04-17T03:56:55.678Z,5.52
2023-04-17T03:57:55.572Z,5.52
2023-04-17T03:58:54.926Z,5.53
2023-04-17T03:59:55.443Z,5.53
2023-04-17T04:00:55.252Z,5.54
2023-04-17T04:01:58.097Z,5.54
2023-04-17T04:02:55.522Z,5.56
2023-04-17T04:03:55.134Z,5.56
2023-04-17T04:04:54.926Z,5.57
2023-04-17T04:05:55.173Z,5.58
2023-04-17T04:06:56.046Z,5.58
2023-04-17T04:07:55.091Z,5.57
2023-04-17T04:08:56.242Z,5.56
2023-04-17T04:09:54.827Z,5.55
2023-04-17T04:10:54.786Z,5.54
2023-04-17T04:11:54.725Z,5.53
2023-04-17T04:12:55.027Z,5.53
2023-04-17T04:13:54.700Z,5.53
2023-04-17T04:14:54.728Z,5.53
2023-04-17T04:15:54.818Z,5.54
2023-04-17T04:16:54.766Z,5.56
2023-04-17T04:17:54.665Z,5.57
2023-04-17T04:18:54.542Z,5.58
2023-04-17T04:19:54.616Z,5.59
2023-04-17T04:20:54.531Z,5.60
2023-04-17T04:21:54.517Z,5.60
2023-04-17T04:22:54.573Z,5.59
2023-04-17T04:23:54.450Z,5.58
2023-04-17T04:24:54.441Z,5.57
2023-04-17T04:25:54.429Z,5.56
2023-04-17T04:26:54.395Z,5.55
2023-04-17T04:27:54.509Z,5.55
2023-04-17T04:28:54.442Z,5.54
2023-04-17T04:29:54.365Z,5.55
2023-04-17T04:30:54.349Z,5.56
2023-04-17T04:31:54.509Z,5.55
2023-04-17T04:32:54.476Z,5.55
2023-04-17T04:33:54.348Z,5.55
2023-04-17T04:34:54.359Z,5.54
2023-04-17T04:35:54.327Z,5.54
2023-04-17T04:36:54.394Z,5.53
2023-04-17T04:37:54.376Z,5.52
2023-04-17T04:38:54.355Z,5.51
2023-04-17T04:39:54.330Z,5.51
2023-04-17T04:40:54.323Z,5.50
2023-04-17T04:41:54.235Z,5.50
2023-04-17T04:42:54.310Z,5.50
2023-04-17T04:43:54.287Z,5.50
2023-04-17T04:44:54.270Z,5.50
2023-04-17T04:45:54.272Z,5.51
2023-04-17T04:46:54.277Z,5.52
2023-04-17T04:47:54.304Z,5.52
2023-04-17T04:48:54.254Z,5.53
2023-04-17T04:49:54.209Z,5.53
2023-04-17T04:50:54.180Z,5.52
2023-04-17T04:51:54.235Z,5.52
2023-04-17T04:52:54.246Z,5.52
2023-04-17T04:53:54.266Z,5.52
2023-04-17T04:54:54.196Z,5.51
2023-04-17T04:55:54.166Z,5.51
2023-04-17T04:56:54.170Z,5.51
2023-04-17T04:57:54.354Z,5.51
2023-04-17T04:58:54.184Z,5.51
2023-04-17T04:59:54.145Z,5.52
2023-04-17T05:00:54.144Z,5.52
2023-04-17T05:01:54.546Z,5.53
2023-04-17T05:02:54.964Z,5.53
2023-04-17T05:03:54.911Z,5.53
2023-04-17T05:04:54.155Z,5.53
2023-04-17T05:05:54.194Z,5.54
2023-04-17T05:06:54.146Z,5.54
2023-04-17T05:07:54.145Z,5.54
2023-04-17T05:08:54.448Z,5.55
2023-04-17T05:09:54.322Z,5.55
2023-04-17T05:10:54.280Z,5.56
2023-04-17T05:11:54.273Z,5.56
2023-04-17T05:12:54.253Z,5.56
2023-04-17T05:13:54.288Z,5.57
2023-04-17T05:14:54.344Z,5.58
2023-04-17T05:15:54.208Z,5.58
2023-04-17T05:16:54.395Z,5.59
2023-04-17T05:17:54.989Z,5.59
2023-04-17T05:18:54.167Z,5.60
2023-04-17T05:19:53.947Z,5.60
2023-04-17T05:20:53.917Z,5.59
2023-04-17T05:21:53.941Z,5.59
2023-04-17T05:22:53.949Z,5.59
2023-04-17T05:23:53.949Z,5.60
2023-04-17T05:24:54.060Z,5.61
2023-04-17T05:25:53.849Z,5.62
2023-04-17T05:26:54.259Z,5.63
2023-04-17T05:27:54.076Z,5.64
2023-04-17T05:28:53.883Z,5.65
2023-04-17T05:29:54.138Z,5.66
2023-04-17T05:30:53.860Z,5.66
2023-04-17T05:31:53.896Z,5.67
2023-04-17T05:32:54.091Z,5.68
2023-04-17T05:33:53.906Z,5.69
2023-04-17T05:34:54.069Z,5.70
2023-04-17T05:35:56.262Z,5.71
2023-04-17T05:36:54.396Z,5.72
2023-04-17T05:37:54.498Z,5.74
2023-04-17T05:38:53.914Z,5.75
2023-04-17T05:39:54.296Z,5.77
2023-04-17T05:40:54.491Z,5.79
2023-04-17T05:41:54.057Z,5.81
2023-04-17T05:42:54.714Z,5.83
2023-04-17T05:43:53.781Z,5.84
2023-04-17T05:44:54.810Z,5.85
2023-04-17T05:47:05.752Z,7.09
2023-04-17T05:48:06.565Z,6.60
2023-04-17T05:49:06.588Z,6.29
2023-04-17T05:50:06.215Z,6.12
2023-04-17T05:51:06.237Z,6.03
2023-04-17T05:52:06.261Z,5.98
2023-04-17T05:53:06.205Z,5.96
2023-04-17T05:54:06.190Z,5.95
2023-04-17T05:55:06.166Z,5.95
2023-04-17T05:56:06.237Z,5.94
2023-04-17T05:57:06.156Z,5.93
2023-04-17T05:58:22.197Z,5.93
2023-04-17T05:59:06.236Z,5.93
2023-04-17T06:00:06.276Z,5.94
2023-04-17T06:01:06.318Z,5.95
2023-04-17T06:02:06.206Z,5.96
2023-04-17T06:03:06.326Z,5.97
2023-04-17T06:04:06.443Z,5.98
2023-04-17T06:05:06.261Z,5.99
2023-04-17T06:06:06.082Z,5.99
2023-04-17T06:07:06.138Z,5.98
2023-04-17T06:08:06.069Z,5.97
2023-04-17T06:09:06.046Z,5.94
2023-04-17T06:10:06.063Z,5.91
2023-04-17T06:11:06.052Z,5.87
2023-04-17T06:12:06.065Z,5.85
2023-04-17T06:13:06.041Z,5.85
2023-04-17T06:14:06.002Z,5.86
2023-04-17T06:15:07.377Z,5.88
2023-04-17T06:16:05.982Z,5.90
2023-04-17T06:17:06.050Z,5.92
2023-04-17T06:18:06.064Z,5.93
2023-04-17T06:19:05.982Z,5.94
2023-04-17T06:20:06.037Z,5.93
2023-04-17T06:21:05.927Z,5.92
2023-04-17T06:22:05.936Z,5.92
2023-04-17T06:23:05.903Z,5.92
2023-04-17T06:24:05.938Z,5.92
2023-04-17T06:25:05.894Z,5.91
2023-04-17T06:26:05.883Z,5.91
2023-04-17T06:27:05.896Z,5.91
2023-04-17T06:28:05.865Z,5.90
2023-04-17T06:29:05.881Z,5.89
2023-04-17T06:30:05.900Z,5.88
2023-04-17T06:31:05.980Z,5.88
2023-04-17T06:32:05.820Z,5.88
2023-04-17T06:33:05.886Z,5.89
2023-04-17T06:34:05.790Z,5.92
2023-04-17T06:35:05.879Z,5.94
2023-04-17T06:36:05.845Z,5.95
2023-04-17T06:37:05.776Z,5.95
2023-04-17T06:38:05.758Z,5.95
2023-04-17T06:39:05.788Z,5.96
2023-04-17T06:40:05.759Z,5.98
2023-04-17T06:41:05.760Z,5.99
2023-04-17T06:42:05.714Z,6.01
2023-04-17T06:43:05.725Z,6.03
2023-04-17T06:44:05.704Z,6.05
2023-04-17T06:45:05.691Z,6.08
2023-04-17T06:46:05.743Z,6.12
2023-04-17T06:47:05.731Z,6.14
2023-04-17T06:48:05.819Z,6.14
2023-04-17T06:49:05.992Z,6.13
2023-04-17T06:51:55.628Z,7.48
2023-04-17T06:52:56.250Z,6.99
2023-04-17T06:53:56.374Z,6.67
2023-04-17T06:54:56.177Z,6.49
2023-04-17T06:55:56.165Z,6.38
2023-04-17T06:56:56.186Z,6.32
2023-04-17T06:57:56.201Z,6.29
2023-04-17T06:58:56.121Z,6.26
2023-04-17T06:59:56.137Z,6.23
2023-04-17T07:00:56.128Z,6.23
2023-04-17T07:01:56.174Z,6.24
2023-04-17T07:02:56.322Z,6.25
2023-04-17T07:03:56.358Z,6.24
2023-04-17T07:04:56.136Z,6.24
2023-04-17T07:05:56.058Z,6.23
2023-04-17T07:06:56.064Z,6.23
2023-04-17T07:07:56.064Z,6.24
2023-04-17T07:08:56.059Z,6.26
2023-04-17T07:09:56.098Z,6.25
2023-04-17T07:10:56.059Z,6.24
2023-04-17T07:11:56.055Z,6.24
2023-04-17T07:12:56.102Z,6.24
2023-04-17T07:13:55.996Z,6.26
2023-04-17T07:14:55.950Z,6.27
2023-04-17T07:15:56.141Z,6.29
2023-04-17T07:16:56.001Z,6.30
2023-04-17T07:17:56.003Z,6.31
2023-04-17T07:18:55.967Z,6.32
2023-04-17T07:19:55.939Z,6.31
2023-04-17T07:20:55.958Z,6.32
2023-04-17T07:21:55.945Z,6.33
2023-04-17T07:22:55.899Z,6.34
2023-04-17T07:23:56.011Z,6.35
2023-04-17T07:24:55.862Z,6.36
2023-04-17T07:25:55.891Z,6.38
2023-04-17T07:26:55.953Z,6.40
2023-04-17T07:27:55.908Z,6.43
2023-04-17T07:28:56.003Z,6.45
2023-04-17T07:29:55.903Z,6.48
2023-04-17T07:30:55.879Z,6.50
2023-04-17T07:31:55.942Z,6.51
2023-04-17T07:32:55.890Z,6.53
2023-04-17T07:33:55.798Z,6.55
2023-04-17T07:34:55.821Z,6.57
2023-04-17T07:35:55.803Z,6.60
2023-04-17T07:36:55.737Z,6.62
2023-04-17T07:37:55.767Z,6.65
2023-04-17T07:38:55.748Z,6.72
2023-04-17T07:39:55.751Z,6.80
2023-04-17T07:40:55.712Z,6.88
2023-04-17T07:41:55.716Z,6.94
2023-04-17T07:42:55.688Z,6.99
2023-04-17T07:43:57.779Z,7.04
2023-04-17T07:44:55.691Z,7.09
2023-04-17T07:45:55.674Z,7.14
2023-04-17T07:46:55.828Z,7.17
2023-04-17T07:47:55.753Z,7.19
2023-04-17T07:48:56.351Z,7.21
2023-04-17T07:49:55.685Z,7.22
2023-04-17T07:50:55.664Z,7.25
2023-04-17T07:51:55.596Z,7.26
2023-04-17T07:52:55.648Z,7.25
2023-04-17T07:53:55.604Z,7.25
2023-04-17T07:54:55.573Z,7.26
2023-04-17T07:55:55.595Z,7.29
2023-04-17T07:56:55.718Z,7.32
2023-04-17T07:57:55.569Z,7.35
2023-04-17T07:58:55.528Z,7.35
2023-04-17T07:59:55.613Z,7.35
2023-04-17T08:00:55.537Z,7.34
2023-04-17T08:01:55.649Z,7.35
2023-04-17T08:02:55.629Z,7.36
2023-04-17T08:03:55.730Z,7.36
2023-04-17T08:04:55.701Z,7.34
2023-04-17T08:05:55.528Z,7.30
2023-04-17T08:06:55.530Z,7.25
2023-04-17T08:07:55.433Z,7.20
2023-04-17T08:08:55.482Z,7.18
2023-04-17T08:09:55.543Z,7.20
2023-04-17T08:10:55.421Z,7.23
2023-04-17T08:11:57.960Z,7.28
2023-04-17T08:12:55.381Z,7.31
2023-04-17T08:13:55.480Z,7.32
2023-04-17T08:14:55.393Z,7.33
2023-04-17T08:15:55.419Z,7.35
2023-04-17T08:16:55.498Z,7.38
2023-04-17T08:17:55.457Z,7.38
2023-04-17T08:18:55.332Z,7.37
2023-04-17T08:19:55.324Z,7.37
2023-04-17T08:20:55.344Z,7.38
2023-04-17T08:21:55.298Z,7.41
2023-04-17T08:22:55.384Z,7.46
2023-04-17T08:23:55.347Z,7.54
2023-04-17T08:24:55.289Z,7.63
2023-04-17T08:25:55.253Z,7.72
2023-04-17T08:26:55.263Z,7.82
2023-04-17T08:27:55.218Z,7.92
2023-04-17T08:28:55.343Z,8.02
2023-04-17T08:29:55.213Z,8.13
2023-04-17T08:30:55.224Z,8.23
2023-04-17T08:32:10.365Z,8.31
2023-04-17T08:32:55.233Z,8.35
2023-04-17T08:34:02.834Z,8.39
2023-04-17T08:34:55.206Z,8.43
2023-04-17T08:35:55.152Z,8.44
2023-04-17T08:36:55.184Z,8.45
2023-04-17T08:37:55.340Z,8.44
2023-04-17T08:38:55.236Z,8.42
2023-04-17T08:39:55.122Z,8.40
2023-04-17T08:40:55.149Z,8.40
2023-04-17T08:41:55.086Z,8.40
2023-04-17T08:42:55.139Z,8.38
2023-04-17T08:43:55.163Z,8.32
2023-04-17T08:44:55.089Z,8.27
2023-04-17T08:45:55.137Z,8.25
2023-04-17T08:46:55.060Z,8.21
2023-04-17T08:47:55.071Z,8.16
2023-04-17T08:48:55.056Z,8.12
2023-04-17T08:49:55.025Z,8.10
2023-04-17T08:50:55.037Z,8.09
2023-04-17T08:51:54.995Z,8.09
2023-04-17T08:52:55.051Z,8.08
2023-04-17T08:53:55.034Z,8.08
2023-04-17T08:54:54.956Z,8.11
2023-04-17T08:55:54.998Z,8.15
2023-04-17T08:56:55.084Z,8.20
2023-04-17T08:57:54.953Z,8.27
2023-04-17T08:58:54.972Z,8.34
2023-04-17T08:59:54.992Z,8.40
2023-04-17T09:00:54.926Z,8.46
2023-04-17T09:01:55.014Z,8.53
2023-04-17T09:02:55.158Z,8.60
2023-04-17T09:03:55.263Z,8.67
2023-04-17T09:04:55.276Z,8.72
2023-04-17T09:05:54.872Z,8.74
2023-04-17T09:06:54.839Z,8.75
2023-04-17T09:07:54.833Z,8.78
2023-04-17T09:08:54.847Z,8.81
2023-04-17T09:09:54.888Z,8.86
2023-04-17T09:10:54.800Z,8.88
2023-04-17T09:11:54.815Z,8.89
2023-04-17T09:12:54.809Z,8.93
2023-04-17T09:13:54.830Z,8.98
2023-04-17T09:14:54.805Z,9.03
2023-04-17T09:15:54.847Z,9.09
2023-04-17T09:16:54.716Z,9.14
2023-04-17T09:17:54.874Z,9.13
2023-04-17T09:18:54.736Z,9.13
2023-04-17T09:19:54.692Z,9.16
2023-04-17T09:20:54.694Z,9.22
2023-04-17T09:21:54.718Z,9.31
2023-04-17T09:22:54.673Z,9.39
2023-04-17T09:23:54.683Z,9.38
2023-04-17T09:25:54.663Z,9.31
2023-04-17T09:26:54.690Z,9.32
2023-04-17T09:27:54.623Z,9.36
2023-04-17T09:28:54.630Z,9.41
2023-04-17T09:29:54.579Z,9.42
2023-04-17T09:30:54.572Z,9.44
2023-04-17T09:31:54.615Z,9.51
2023-04-17T09:32:54.673Z,9.60
2023-04-17T09:33:54.607Z,9.70
2023-04-17T09:34:54.563Z,9.79
2023-04-17T09:35:54.523Z,9.90
2023-04-17T09:36:54.543Z,10.03
2023-04-17T09:37:54.771Z,10.14
2023-04-17T09:38:54.579Z,10.23
2023-04-17T09:39:54.700Z,10.31
2023-04-17T09:40:54.520Z,10.36
2023-04-17T09:41:54.489Z,10.37
2023-04-17T09:42:54.479Z,10.33
2023-04-17T09:43:54.461Z,10.23
2023-04-17T09:44:54.438Z,10.09
2023-04-17T09:45:54.490Z,9.98
2023-04-17T09:46:54.503Z,9.97
2023-04-17T09:47:54.555Z,10.04
2023-04-17T09:48:54.391Z,10.16
2023-04-17T09:49:54.392Z,10.32
2023-04-17T09:50:54.389Z,10.50
2023-04-17T09:51:54.353Z,10.64
2023-04-17T09:52:54.429Z,10.76
2023-04-17T09:53:54.381Z,10.88
2023-04-17T09:54:54.366Z,11.00
2023-04-17T09:55:54.386Z,11.13
2023-04-17T09:56:54.343Z,11.21
2023-04-17T09:57:54.297Z,11.20
2023-04-17T09:58:54.341Z,11.14
2023-04-17T09:59:54.395Z,11.05
2023-04-17T10:00:54.350Z,10.96
2023-04-17T10:01:54.426Z,10.96
2023-04-17T10:02:54.496Z,11.03
2023-04-17T10:03:54.553Z,11.20
2023-04-17T10:04:54.220Z,11.40
2023-04-17T10:05:54.236Z,11.52
2023-04-17T10:06:54.217Z,11.62
2023-04-17T10:07:54.205Z,11.83
2023-04-17T10:08:54.243Z,12.19
2023-04-17T10:09:54.183Z,12.47
2023-04-17T10:10:54.175Z,12.61
2023-04-17T10:11:54.164Z,12.76
2023-04-17T10:12:54.185Z,12.81
2023-04-17T10:13:54.136Z,12.70
2023-04-17T10:14:54.116Z,12.45
2023-04-17T10:15:54.313Z,12.12
2023-04-17T10:16:54.121Z,11.88
2023-04-17T10:17:54.126Z,11.81
2023-04-17T10:18:54.090Z,11.82
2023-04-17T10:19:54.106Z,11.87
2023-04-17T10:20:54.278Z,11.96
2023-04-17T10:21:54.102Z,12.06
2023-04-17T10:22:54.318Z,12.19
2023-04-17T10:23:54.038Z,12.33
2023-04-17T10:24:54.058Z,12.39
2023-04-17T10:25:54.001Z,12.36
2023-04-17T10:26:53.999Z,12.39
2023-04-17T10:27:54.040Z,12.49
2023-04-17T10:28:53.994Z,12.54
2023-04-17T10:29:53.993Z,12.59
2023-04-17T10:30:54.505Z,12.76
2023-04-17T10:31:54.030Z,12.97
2023-04-17T10:32:53.953Z,13.18
2023-04-17T10:33:54.013Z,13.35
2023-04-17T10:34:54.015Z,13.45
2023-04-17T10:35:53.981Z,13.49
2023-04-17T10:36:54.007Z,13.53
2023-04-17T10:37:53.905Z,13.70
2023-04-17T10:38:53.924Z,13.77
2023-04-17T10:39:53.923Z,13.73
2023-04-17T10:40:53.897Z,13.72
2023-04-17T10:41:53.870Z,13.87
2023-04-17T10:42:53.848Z,13.99
2023-04-17T10:43:53.868Z,13.65
2023-04-17T10:44:53.818Z,13.06
2023-04-17T10:45:53.899Z,12.70
2023-04-17T10:46:53.808Z,12.65
2023-04-17T10:47:53.894Z,12.73
2023-04-17T10:48:53.907Z,12.78
2023-04-17T10:49:53.778Z,12.80
2023-04-17T10:50:53.826Z,12.78
2023-04-17T10:51:53.736Z,12.71
2023-04-17T10:52:53.756Z,12.63
2023-04-17T10:53:53.747Z,12.61
2023-04-17T10:54:53.749Z,12.68
2023-04-17T10:55:53.741Z,12.94
2023-04-17T10:56:53.730Z,13.35
2023-04-17T10:57:53.683Z,13.59
2023-04-17T10:58:53.672Z,13.58
2023-04-17T10:59:53.662Z,13.47
2023-04-17T11:00:53.718Z,13.23
2023-04-17T11:01:53.810Z,12.84
2023-04-17T11:02:53.737Z,12.43
2023-04-17T11:03:53.629Z,12.08
2023-04-17T11:04:53.652Z,11.83
2023-04-17T11:05:53.619Z,11.60
2023-04-17T11:06:53.592Z,11.43
2023-04-17T11:07:53.600Z,11.46
2023-04-17T11:08:54.055Z,11.68
2023-04-17T11:09:53.584Z,11.89
2023-04-17T11:10:53.562Z,12.10
2023-04-17T11:11:53.588Z,12.44
2023-04-17T11:12:53.552Z,12.93
2023-04-17T11:13:53.548Z,13.41
2023-04-17T11:14:53.530Z,13.82
2023-04-17T11:15:53.520Z,14.17
2023-04-17T11:16:53.634Z,14.46
2023-04-17T11:17:53.550Z,14.60
2023-04-17T11:18:53.487Z,14.77
2023-04-17T11:19:53.479Z,15.08
2023-04-17T11:20:53.608Z,15.44
2023-04-17T11:21:53.767Z,15.78
2023-04-17T11:22:53.435Z,15.92
2023-04-17T11:23:53.426Z,15.77
2023-04-17T11:24:53.512Z,15.52
2023-04-17T11:25:53.397Z,15.42
2023-04-17T11:26:53.467Z,15.48
2023-04-17T11:27:53.373Z,15.66
2023-04-17T11:28:53.455Z,15.81
2023-04-17T11:29:53.385Z,15.84
2023-04-17T11:30:53.433Z,15.76
2023-04-17T11:31:53.380Z,15.77
2023-04-17T11:32:53.421Z,16.00
2023-04-17T11:33:53.328Z,16.38
2023-04-17T11:34:53.383Z,16.68
2023-04-17T11:35:53.303Z,16.70
2023-04-17T11:36:53.295Z,16.17
2023-04-17T11:37:53.315Z,15.34
2023-04-17T11:38:55.412Z,14.73
2023-04-17T11:39:53.260Z,14.35
2023-04-17T11:40:53.339Z,14.01
2023-04-17T11:41:53.314Z,13.71
2023-04-17T11:42:53.251Z,13.50
2023-04-17T11:43:53.254Z,13.33
2023-04-17T11:44:53.277Z,13.22
2023-04-17T11:45:53.260Z,13.11
2023-04-17T11:46:53.282Z,12.91
2023-04-17T11:47:53.203Z,12.74
2023-04-17T11:48:53.177Z,12.61
2023-04-17T11:49:53.181Z,12.47
2023-04-17T11:50:53.151Z,12.28
2023-04-17T11:51:53.245Z,12.04
2023-04-17T11:52:53.144Z,11.76
2023-04-17T11:53:53.121Z,11.58
2023-04-17T11:54:53.115Z,11.61
2023-04-17T11:55:53.112Z,12.03
2023-04-17T11:56:53.136Z,12.69
2023-04-17T11:57:53.093Z,13.24
2023-04-17T11:58:53.144Z,13.65
2023-04-17T11:59:53.055Z,14.00
2023-04-17T12:00:53.054Z,14.03
2023-04-17T12:01:53.183Z,13.97
2023-04-17T12:02:53.088Z,14.19
2023-04-17T12:03:53.099Z,14.71
2023-04-17T12:04:53.151Z,15.41
2023-04-17T12:05:53.260Z,15.95
2023-04-17T12:06:52.998Z,16.13
2023-04-17T12:07:53.003Z,15.84
2023-04-17T12:08:52.989Z,15.33
2023-04-17T12:09:53.079Z,15.02
2023-04-17T12:10:53.041Z,15.09
2023-04-17T12:11:52.993Z,15.23
2023-04-17T12:12:52.949Z,15.15
2023-04-17T12:13:52.917Z,14.97
2023-04-17T12:14:52.949Z,14.78
2023-04-17T12:15:52.923Z,14.63
2023-04-17T12:16:52.893Z,14.60
2023-04-17T12:17:52.971Z,14.80
2023-04-17T12:18:52.988Z,15.12
2023-04-17T12:19:52.866Z,15.32
2023-04-17T12:20:52.884Z,15.45
2023-04-17T12:21:52.840Z,15.52
2023-04-17T12:22:52.860Z,15.63
2023-04-17T12:23:52.829Z,15.95
2023-04-17T12:24:52.816Z,16.35
2023-04-17T12:25:52.818Z,16.53
2023-04-17T12:26:52.901Z,16.43
2023-04-17T12:27:52.862Z,16.08
2023-04-17T12:28:52.781Z,15.64
2023-04-17T12:29:52.796Z,15.29
2023-04-17T12:30:52.764Z,15.00
2023-04-17T12:31:52.767Z,14.75
2023-04-17T12:32:52.793Z,14.47
2023-04-17T12:33:52.738Z,14.17
2023-04-17T12:34:52.713Z,13.91
2023-04-17T12:35:52.913Z,13.67
2023-04-17T12:36:52.702Z,13.30
2023-04-17T12:37:52.667Z,12.88
2023-04-17T12:38:52.668Z,12.57
2023-04-17T12:39:52.676Z,12.29
2023-04-17T12:40:52.661Z,11.97
2023-04-17T12:41:52.687Z,11.69
2023-04-17T12:42:52.647Z,11.48
2023-04-17T12:43:52.645Z,11.24
2023-04-17T12:44:52.612Z,11.02
2023-04-17T12:45:52.703Z,10.89
2023-04-17T12:46:52.615Z,10.82
2023-04-17T12:47:52.641Z,10.76
2023-04-17T12:48:52.590Z,10.74
2023-04-17T12:49:52.574Z,10.76
2023-04-17T12:50:52.660Z,10.79
2023-04-17T12:51:52.591Z,10.81
2023-04-17T12:52:52.859Z,10.82
2023-04-17T12:53:52.716Z,10.80
2023-04-17T12:54:52.506Z,10.74
2023-04-17T12:55:52.512Z,10.68
2023-04-17T12:56:52.543Z,10.59
2023-04-17T12:57:52.501Z,10.48
2023-04-17T12:58:52.603Z,10.32
2023-04-17T12:59:52.520Z,10.13
2023-04-17T13:00:52.470Z,9.92
2023-04-17T13:01:52.585Z,9.74
2023-04-17T13:02:52.533Z,9.62
2023-04-17T13:04:00.722Z,9.53
2023-04-17T13:04:53.573Z,9.46
2023-04-17T13:05:52.444Z,9.40
2023-04-17T13:06:52.455Z,9.33
2023-04-17T13:07:52.526Z,9.32
2023-04-17T13:08:52.542Z,9.37
2023-04-17T13:09:52.406Z,9.46
2023-04-17T13:10:52.358Z,9.56
2023-04-17T13:11:52.376Z,9.64
2023-04-17T13:12:52.361Z,9.72
2023-04-17T13:13:52.508Z,9.80
2023-04-17T13:14:52.338Z,9.86
2023-04-17T13:15:52.356Z,9.90